createdAt,value
2023-02-27T00:02:02.449Z,6.7
2023-02-27T00:07:02.422Z,5.8
2023-02-27T00:12:02.434Z,5.06
2023-02-27T00:22:02.425Z,4.97
2023-02-27T00:27:02.409Z,4.47
2023-02-27T00:32:02.520Z,4.07
2023-02-27T00:37:02.410Z,4.13
2023-02-27T00:42:02.411Z,3.74
2023-02-27T00:47:02.420Z,3.44
2023-02-27T00:52:02.467Z,3.67
2023-02-27T00:57:02.443Z,3.13
2023-02-27T01:02:02.415Z,2.56
2023-02-27T01:07:02.419Z,2.54
2023-02-27T01:12:02.422Z,2.47
2023-02-27T01:17:02.446Z,2.11
2023-02-27T01:22:02.437Z,1.99
2023-02-27T01:27:02.444Z,2.07
2023-02-27T01:32:02.562Z,2.28
2023-02-27T01:37:02.442Z,2.14
2023-02-27T01:42:02.433Z,1.89
2023-02-27T01:47:02.443Z,1.91
2023-02-27T01:52:02.476Z,1.85
2023-02-27T01:57:02.479Z,1.81
2023-02-27T02:02:02.547Z,1.95
2023-02-27T02:07:02.452Z,1.81
2023-02-27T02:12:02.452Z,1.78
2023-02-27T02:17:02.488Z,1.81
2023-02-27T02:22:02.451Z,1.87
2023-02-27T02:27:02.475Z,2.09
2023-02-27T02:32:02.545Z,2.37
2023-02-27T02:37:02.459Z,2.23
2023-02-27T02:42:02.452Z,2.21
2023-02-27T02:47:02.474Z,1.87
2023-02-27T02:52:02.480Z,1.67
2023-02-27T02:57:02.465Z,1.39
2023-02-27T03:02:02.469Z,1.38
2023-02-27T03:07:02.490Z,1.32
2023-02-27T03:12:02.502Z,1.23
2023-02-27T03:17:02.508Z,1.31
2023-02-27T03:22:02.482Z,1.2
2023-02-27T03:27:02.472Z,1.38
2023-02-27T03:32:02.536Z,1.22
2023-02-27T03:37:02.472Z,1.16
2023-02-27T03:42:02.481Z,1.32
2023-02-27T03:47:02.479Z,1.17
2023-02-27T03:52:02.486Z,1.25
2023-02-27T03:57:02.497Z,1.33
2023-02-27T04:02:02.612Z,1.18
2023-02-27T04:07:02.506Z,1.23
2023-02-27T04:12:02.520Z,1.34
2023-02-27T04:17:02.475Z,1.3
2023-02-27T04:22:02.503Z,1.56
2023-02-27T04:27:02.523Z,1.47
2023-02-27T04:32:02.616Z,1.57
2023-02-27T04:37:02.538Z,1.56
2023-02-27T04:42:02.535Z,1.49
2023-02-27T04:47:02.536Z,1.45
2023-02-27T04:52:02.538Z,1.53
2023-02-27T04:57:02.505Z,1.65
2023-02-27T05:02:02.645Z,1.73
2023-02-27T05:07:02.529Z,1.86
2023-02-27T05:12:02.518Z,1.79
2023-02-27T05:17:02.501Z,1.89
2023-02-27T05:22:02.517Z,1.87
2023-02-27T05:27:02.554Z,2.05
2023-02-27T05:32:02.656Z,2.21
2023-02-27T05:37:02.507Z,1.8
2023-02-27T05:42:02.508Z,1.72
2023-02-27T05:47:02.519Z,1.76
2023-02-27T05:52:02.513Z,1.96
2023-02-27T05:57:02.515Z,1.98
2023-02-27T06:02:02.640Z,2.31
2023-02-27T06:07:02.512Z,1.83
2023-02-27T06:12:02.522Z,1.84
2023-02-27T06:17:02.574Z,2.09
2023-02-27T06:22:02.540Z,2.05
2023-02-27T06:27:02.551Z,2.57
2023-02-27T06:32:02.541Z,3.73
2023-02-27T06:37:04.218Z,4.08
2023-02-27T06:42:02.532Z,3.27
2023-02-27T06:47:02.534Z,2.6
2023-02-27T06:52:02.526Z,2.49
2023-02-27T06:57:02.538Z,3.37
2023-02-27T07:02:02.543Z,4.21
2023-02-27T07:07:33.485Z,2.86
2023-02-27T07:12:02.531Z,2.46
2023-02-27T07:17:02.537Z,2.26
2023-02-27T07:22:02.550Z,2.05
2023-02-27T07:27:02.532Z,2.79
2023-02-27T07:32:02.574Z,2.65
2023-02-27T07:37:02.564Z,2.45
2023-02-27T07:42:02.558Z,2.36
2023-02-27T07:47:02.634Z,2.32
2023-02-27T07:52:02.583Z,2.57
2023-02-27T07:57:02.581Z,3.32
2023-02-27T08:02:02.621Z,8.24
2023-02-27T08:07:02.572Z,7.01
2023-02-27T08:12:02.560Z,8.02
2023-02-27T08:17:02.562Z,8.17
2023-02-27T08:22:02.571Z,6.75
2023-02-27T08:27:02.572Z,5.45
2023-02-27T08:32:02.657Z,4.63
2023-02-27T08:37:02.576Z,4.54
2023-02-27T08:42:02.582Z,3.68
2023-02-27T08:47:02.573Z,3.25
2023-02-27T08:52:02.604Z,2.55
2023-02-27T08:57:02.608Z,2.27
2023-02-27T09:02:02.569Z,3.25
2023-02-27T09:07:02.576Z,3.21
2023-02-27T09:12:02.611Z,2.81
2023-02-27T09:17:02.625Z,2.97
2023-02-27T09:22:02.570Z,2.67
2023-02-27T09:27:02.594Z,2.96
2023-02-27T09:32:02.683Z,2.67
2023-02-27T09:37:02.586Z,3.12
2023-02-27T09:42:02.594Z,3.04
2023-02-27T09:47:02.606Z,2.78
2023-02-27T09:52:02.594Z,2.78
2023-02-27T09:57:02.620Z,2.76
2023-02-27T10:02:02.678Z,2.61
2023-02-27T10:07:02.628Z,3.47
2023-02-27T10:12:02.619Z,3.01
2023-02-27T10:17:02.685Z,2.75
2023-02-27T10:22:02.618Z,2.95
2023-02-27T10:27:02.635Z,2.88
2023-02-27T10:32:02.661Z,2.15
2023-02-27T10:37:02.670Z,2.67
2023-02-27T10:42:02.642Z,2.53
2023-02-27T10:47:02.653Z,2.73
2023-02-27T10:52:02.660Z,2.51
2023-02-27T10:57:02.669Z,3.27
2023-02-27T11:02:02.663Z,3.68
2023-02-27T11:07:02.613Z,5.32
2023-02-27T11:12:02.621Z,3.72
2023-02-27T11:17:02.681Z,4.4
2023-02-27T11:22:02.684Z,4.69
2023-02-27T11:27:02.629Z,4.7
2023-02-27T11:32:02.720Z,3.02
2023-02-27T11:37:02.622Z,2.47
2023-02-27T11:42:02.662Z,4.09
2023-02-27T11:47:02.680Z,4.05
2023-02-27T11:57:02.651Z,3.38
2023-02-27T12:02:02.651Z,3.53
2023-02-27T12:07:02.679Z,3.46
2023-02-27T12:12:02.692Z,3.32
2023-02-27T12:17:02.690Z,3.06
2023-02-27T12:22:02.658Z,3.1
2023-02-27T12:27:02.655Z,3.08
2023-02-27T12:32:02.770Z,2.89
2023-02-27T12:37:02.664Z,2.96
2023-02-27T12:42:02.653Z,2.95
2023-02-27T12:47:02.653Z,3.19
2023-02-27T12:52:02.678Z,3.1
2023-02-27T12:57:02.656Z,3.45
2023-02-27T13:02:02.652Z,3.12
2023-02-27T13:07:02.654Z,3.36
2023-02-27T13:12:02.706Z,3.38
2023-02-27T13:17:02.662Z,2.94
2023-02-27T13:22:02.673Z,2.8
2023-02-27T13:27:02.731Z,2.95
2023-02-27T13:32:02.793Z,2.6
2023-02-27T13:37:02.878Z,2.22
2023-02-27T13:42:02.709Z,2.56
2023-02-27T13:47:02.729Z,2.65
2023-02-27T13:52:02.689Z,3.6
2023-02-27T13:57:02.679Z,3.84
2023-02-27T14:02:02.684Z,2.48
2023-02-27T14:07:02.681Z,2.82
2023-02-27T14:12:02.691Z,3.05
2023-02-27T14:17:02.690Z,3.85
2023-02-27T14:22:02.696Z,4.26
2023-02-27T14:27:02.740Z,2.45
2023-02-27T14:32:02.730Z,2.27
2023-02-27T14:37:02.696Z,2.44
2023-02-27T14:42:02.728Z,2.23
2023-02-27T14:47:02.701Z,2.13
2023-02-27T14:52:02.704Z,2.28
2023-02-27T14:57:02.720Z,1.93
2023-02-27T15:02:02.745Z,2.14
2023-02-27T15:07:02.734Z,2.51
2023-02-27T15:12:04.578Z,2.58
2023-02-27T15:17:02.754Z,2.62
2023-02-27T15:22:05.121Z,3.09
2023-02-27T15:27:02.714Z,3.93
2023-02-27T15:32:02.755Z,4.63
2023-02-27T15:37:02.721Z,5.04
2023-02-27T15:42:02.726Z,5.38
2023-02-27T15:47:02.752Z,5.23
2023-02-27T15:52:02.785Z,4.48
2023-02-27T15:57:02.718Z,3.99
2023-02-27T16:02:02.726Z,5.58
2023-02-27T16:07:02.781Z,8.29
2023-02-27T16:12:02.761Z,7.47
2023-02-27T16:17:02.734Z,7.3
2023-02-27T16:22:02.735Z,6.23
2023-02-27T16:27:02.757Z,4.53
2023-02-27T16:32:02.845Z,11.91
2023-02-27T16:37:02.729Z,24.6
2023-02-27T16:42:02.754Z,22.9
2023-02-27T16:47:02.741Z,25.15
2023-02-27T16:52:02.746Z,74.64
2023-02-27T16:57:02.790Z,37.55
2023-02-27T17:02:02.768Z,59.1
2023-02-27T17:07:04.135Z,25.02
2023-02-27T17:12:02.757Z,15.99
2023-02-27T17:17:02.830Z,19.64
2023-02-27T17:22:02.764Z,20.35
2023-02-27T17:27:02.791Z,17.11
2023-02-27T17:32:02.837Z,13.81
2023-02-27T17:37:02.813Z,11.57
2023-02-27T17:42:02.775Z,12.15
2023-02-27T17:47:02.765Z,9.92
2023-02-27T17:52:02.766Z,8.03
2023-02-27T17:57:02.765Z,8.95
2023-02-27T18:02:02.795Z,9.41
2023-02-27T18:07:02.762Z,9.06
2023-02-27T18:12:02.783Z,7.71
2023-02-27T18:17:02.758Z,5.98
2023-02-27T18:22:02.806Z,7.73
2023-02-27T18:27:02.826Z,7.59
2023-02-27T18:32:02.811Z,6.35
2023-02-27T18:37:02.762Z,6.17
2023-02-27T18:42:03.261Z,5.62
2023-02-27T18:47:02.827Z,6.57
2023-02-27T18:52:02.821Z,6.69
2023-02-27T18:57:02.822Z,7.24
2023-02-27T19:02:02.792Z,6.81
2023-02-27T19:07:02.793Z,7.19
2023-02-27T19:12:02.795Z,6.88
2023-02-27T19:17:02.792Z,6.98
2023-02-27T19:22:02.839Z,7.06
2023-02-27T19:27:02.840Z,6.44
2023-02-27T19:32:02.886Z,6.27
2023-02-27T19:37:02.803Z,7.08
2023-02-27T19:47:02.834Z,7.02
2023-02-27T19:52:02.833Z,6.81
2023-02-27T19:57:02.808Z,6.66
2023-02-27T20:02:02.793Z,6.67
2023-02-27T20:07:02.831Z,6.84
2023-02-27T20:12:02.812Z,7.54
2023-02-27T20:17:02.814Z,6.78
2023-02-27T20:22:02.862Z,5.84
2023-02-27T20:27:02.864Z,6.38
2023-02-27T20:32:02.962Z,6.33
2023-02-27T20:37:02.818Z,6.61
2023-02-27T20:42:02.842Z,6.92
2023-02-27T20:47:02.813Z,6.58
2023-02-27T20:52:02.823Z,5.61
2023-02-27T20:57:02.826Z,6.96
2023-02-27T21:02:02.811Z,7.9
2023-02-27T21:07:02.852Z,7.95
2023-02-27T21:12:02.820Z,8.63
2023-02-27T21:17:02.840Z,9.67
2023-02-27T21:22:02.840Z,10.55
2023-02-27T21:27:02.824Z,13.13
2023-02-27T21:32:02.886Z,14.48
2023-02-27T21:37:02.903Z,11.73
2023-02-27T21:42:02.839Z,11.68
2023-02-27T21:47:02.869Z,11.38
2023-02-27T21:52:02.845Z,11.43
2023-02-27T21:57:02.847Z,10.38
2023-02-27T22:02:02.878Z,10.22
2023-02-27T22:07:02.861Z,10.84
2023-02-27T22:12:02.845Z,10.39
2023-02-27T22:17:02.846Z,10.39
2023-02-27T22:22:02.862Z,9.39
2023-02-27T22:27:02.867Z,8.66
2023-02-27T22:32:02.907Z,8.7
2023-02-27T22:37:02.876Z,8.95
2023-02-27T22:42:02.875Z,8.43
2023-02-27T22:47:02.888Z,9.38
2023-02-27T22:52:02.857Z,10.37
2023-02-27T22:57:02.863Z,10.48
2023-02-27T23:02:02.950Z,10.14
2023-02-27T23:07:02.898Z,10.15
2023-02-27T23:12:02.864Z,9.9
2023-02-27T23:17:02.858Z,9.78
2023-02-27T23:22:02.872Z,9.56
2023-02-27T23:27:03.056Z,9.87
2023-02-27T23:32:02.927Z,10.7
2023-02-27T23:42:02.883Z,10.17
2023-02-27T23:47:02.872Z,10.14
2023-02-27T23:52:02.882Z,9.84
2023-02-27T23:57:02.900Z,9.82
